sensor_id;sensor_type;location;lat;lon;timestamp;temperature;humidity
20744;DHT22;56303;52.160;-0.428;2023-04-25T00:01:56;5.40;99.90
20744;DHT22;56303;52.160;-0.428;2023-04-25T00:04:23;5.30;99.90
20744;DHT22;56303;52.160;-0.428;2023-04-25T00:06:50;5.10;99.90
20744;DHT22;56303;52.160;-0.428;2023-04-25T00:09:18;5.30;99.90
20744;DHT22;56303;52.160;-0.428;2023-04-25T00:11:45;5.20;99.90
20744;DHT22;56303;52.160;-0.428;2023-04-25T00:14:12;5.20;99.90
20744;DHT22;56303;52.160;-0.428;2023-04-25T00:16:39;5.40;99.90
20744;DHT22;56303;52.160;-0.428;2023-04-25T00:19:07;5.30;99.90
20744;DHT22;56303;52.160;-0.428;2023-04-25T00:21:36;5.30;99.90
20744;DHT22;56303;52.160;-0.428;2023-04-25T00:24:07;5.40;99.90
20744;DHT22;56303;52.160;-0.428;2023-04-25T00:26:35;5.30;99.90
20744;DHT22;56303;52.160;-0.428;2023-04-25T00:29:02;5.50;99.90
20744;DHT22;56303;52.160;-0.428;2023-04-25T00:31:29;5.30;99.90
20744;DHT22;56303;52.160;-0.428;2023-04-25T00:33:56;5.10;99.90
20744;DHT22;56303;52.160;-0.428;2023-04-25T00:36:23;5.30;99.90
20744;DHT22;56303;52.160;-0.428;2023-04-25T00:38:50;5.40;99.90
20744;DHT22;56303;52.160;-0.428;2023-04-25T00:41:17;5.50;99.90
20744;DHT22;56303;52.160;-0.428;2023-04-25T00:43:46;5.70;99.90
20744;DHT22;56303;52.160;-0.428;2023-04-25T00:46:13;5.40;99.90
20744;DHT22;56303;52.160;-0.428;2023-04-25T00:48:40;5.00;99.90
20744;DHT22;56303;52.160;-0.428;2023-04-25T00:51:07;5.10;99.90
20744;DHT22;56303;52.160;-0.428;2023-04-25T00:53:34;5.10;99.90
20744;DHT22;56303;52.160;-0.428;2023-04-25T00:56:01;5.30;99.90
20744;DHT22;56303;52.160;-0.428;2023-04-25T00:58:28;5.30;99.90
20744;DHT22;56303;52.160;-0.428;2023-04-25T01:00:55;5.30;99.90
20744;DHT22;56303;52.160;-0.428;2023-04-25T01:03:24;5.20;99.90
20744;DHT22;56303;52.160;-0.428;2023-04-25T01:05:51;5.20;99.90
20744;DHT22;56303;52.160;-0.428;2023-04-25T01:08:18;5.10;99.90
20744;DHT22;56303;52.160;-0.428;2023-04-25T01:10:47;5.40;99.90
20744;DHT22;56303;52.160;-0.428;2023-04-25T01:13:14;5.10;99.90
20744;DHT22;56303;52.160;-0.428;2023-04-25T01:15:41;5.00;99.90
20744;DHT22;56303;52.160;-0.428;2023-04-25T01:18:08;4.90;99.90
20744;DHT22;56303;52.160;-0.428;2023-04-25T01:20:35;4.80;99.90
20744;DHT22;56303;52.160;-0.428;2023-04-25T01:23:03;5.10;99.90
20744;DHT22;56303;52.160;-0.428;2023-04-25T01:25:31;5.10;99.90
20744;DHT22;56303;52.160;-0.428;2023-04-25T01:27:58;5.00;99.90
20744;DHT22;56303;52.160;-0.428;2023-04-25T01:30:29;5.20;99.90
20744;DHT22;56303;52.160;-0.428;2023-04-25T01:32:56;5.10;99.90
20744;DHT22;56303;52.160;-0.428;2023-04-25T01:35:23;4.90;99.90
20744;DHT22;56303;52.160;-0.428;2023-04-25T01:37:51;4.80;99.90
20744;DHT22;56303;52.160;-0.428;2023-04-25T01:40:19;4.50;99.90
20744;DHT22;56303;52.160;-0.428;2023-04-25T01:42:47;5.20;99.90
20744;DHT22;56303;52.160;-0.428;2023-04-25T01:45:14;4.50;99.90
20744;DHT22;56303;52.160;-0.428;2023-04-25T01:47:41;5.40;99.90
20744;DHT22;56303;52.160;-0.428;2023-04-25T01:50:10;5.00;99.90
20744;DHT22;56303;52.160;-0.428;2023-04-25T01:52:38;4.80;99.90
20744;DHT22;56303;52.160;-0.428;2023-04-25T01:55:07;4.40;99.90
20744;DHT22;56303;52.160;-0.428;2023-04-25T01:57:34;4.40;99.90
20744;DHT22;56303;52.160;-0.428;2023-04-25T02:00:03;4.50;99.90
20744;DHT22;56303;52.160;-0.428;2023-04-25T02:02:31;4.40;99.90
20744;DHT22;56303;52.160;-0.428;2023-04-25T02:04:58;4.60;99.90
20744;DHT22;56303;52.160;-0.428;2023-04-25T02:07:25;5.00;99.90
20744;DHT22;56303;52.160;-0.428;2023-04-25T02:09:52;4.60;99.90
20744;DHT22;56303;52.160;-0.428;2023-04-25T02:12:19;4.40;99.90
20744;DHT22;56303;52.160;-0.428;2023-04-25T02:14:47;4.40;99.90
20744;DHT22;56303;52.160;-0.428;2023-04-25T02:17:14;4.20;99.90
20744;DHT22;56303;52.160;-0.428;2023-04-25T02:19:42;4.40;99.90
20744;DHT22;56303;52.160;-0.428;2023-04-25T02:22:09;4.20;99.90
20744;DHT22;56303;52.160;-0.428;2023-04-25T02:24:36;4.10;99.90
20744;DHT22;56303;52.160;-0.428;2023-04-25T02:27:03;4.90;99.90
20744;DHT22;56303;52.160;-0.428;2023-04-25T02:29:30;3.90;99.90
20744;DHT22;56303;52.160;-0.428;2023-04-25T02:31:57;4.90;99.90
20744;DHT22;56303;52.160;-0.428;2023-04-25T02:34:24;4.30;99.90
20744;DHT22;56303;52.160;-0.428;2023-04-25T02:36:50;4.10;99.90
20744;DHT22;56303;52.160;-0.428;2023-04-25T02:39:17;4.10;99.90
20744;DHT22;56303;52.160;-0.428;2023-04-25T02:41:44;4.30;99.90
20744;DHT22;56303;52.160;-0.428;2023-04-25T02:44:11;4.20;99.90
20744;DHT22;56303;52.160;-0.428;2023-04-25T02:46:38;4.20;99.90
20744;DHT22;56303;52.160;-0.428;2023-04-25T02:49:06;4.20;99.90
20744;DHT22;56303;52.160;-0.428;2023-04-25T02:51:33;4.40;99.90
20744;DHT22;56303;52.160;-0.428;2023-04-25T02:54:00;4.20;99.90
20744;DHT22;56303;52.160;-0.428;2023-04-25T02:56:26;3.80;99.90
20744;DHT22;56303;52.160;-0.428;2023-04-25T02:58:53;3.70;99.90
20744;DHT22;56303;52.160;-0.428;2023-04-25T03:01:20;3.70;99.90
20744;DHT22;56303;52.160;-0.428;2023-04-25T03:03:47;3.60;99.90
20744;DHT22;56303;52.160;-0.428;2023-04-25T03:06:14;3.50;99.90
20744;DHT22;56303;52.160;-0.428;2023-04-25T03:08:42;3.50;99.90
20744;DHT22;56303;52.160;-0.428;2023-04-25T03:11:09;3.80;99.90
20744;DHT22;56303;52.160;-0.428;2023-04-25T03:13:37;3.90;99.90
20744;DHT22;56303;52.160;-0.428;2023-04-25T03:16:04;4.50;99.90
20744;DHT22;56303;52.160;-0.428;2023-04-25T03:18:31;3.60;99.90
20744;DHT22;56303;52.160;-0.428;2023-04-25T03:20:58;3.50;99.90
20744;DHT22;56303;52.160;-0.428;2023-04-25T03:23:25;4.90;99.90
20744;DHT22;56303;52.160;-0.428;2023-04-25T03:25:52;4.20;99.90
20744;DHT22;56303;52.160;-0.428;2023-04-25T03:28:19;4.40;99.90
20744;DHT22;56303;52.160;-0.428;2023-04-25T03:30:46;4.00;99.90
20744;DHT22;56303;52.160;-0.428;2023-04-25T03:33:13;3.70;99.90
20744;DHT22;56303;52.160;-0.428;2023-04-25T03:35:40;3.90;99.90
20744;DHT22;56303;52.160;-0.428;2023-04-25T03:38:07;3.80;99.90
20744;DHT22;56303;52.160;-0.428;2023-04-25T03:40:33;3.90;99.90
20744;DHT22;56303;52.160;-0.428;2023-04-25T03:43:00;4.00;99.90
20744;DHT22;56303;52.160;-0.428;2023-04-25T03:45:27;3.90;99.90
20744;DHT22;56303;52.160;-0.428;2023-04-25T03:47:54;4.00;99.90
20744;DHT22;56303;52.160;-0.428;2023-04-25T03:50:21;4.00;99.90
20744;DHT22;56303;52.160;-0.428;2023-04-25T03:52:47;3.90;99.90
20744;DHT22;56303;52.160;-0.428;2023-04-25T03:55:14;4.10;99.90
20744;DHT22;56303;52.160;-0.428;2023-04-25T03:57:41;3.90;99.90
20744;DHT22;56303;52.160;-0.428;2023-04-25T04:00:08;3.70;99.90
20744;DHT22;56303;52.160;-0.428;2023-04-25T04:02:36;3.50;99.90
20744;DHT22;56303;52.160;-0.428;2023-04-25T04:05:04;3.40;99.90
20744;DHT22;56303;52.160;-0.428;2023-04-25T04:07:32;3.70;99.90
20744;DHT22;56303;52.160;-0.428;2023-04-25T04:09:59;4.10;99.90
20744;DHT22;56303;52.160;-0.428;2023-04-25T04:12:26;4.10;99.90
20744;DHT22;56303;52.160;-0.428;2023-04-25T04:14:53;4.00;99.90
20744;DHT22;56303;52.160;-0.428;2023-04-25T04:17:20;3.90;99.90
20744;DHT22;56303;52.160;-0.428;2023-04-25T04:19:47;4.10;99.90
20744;DHT22;56303;52.160;-0.428;2023-04-25T04:22:13;3.90;99.90
20744;DHT22;56303;52.160;-0.428;2023-04-25T04:24:40;4.10;99.90
20744;DHT22;56303;52.160;-0.428;2023-04-25T04:27:10;4.10;99.90
20744;DHT22;56303;52.160;-0.428;2023-04-25T04:29:39;3.50;99.90
20744;DHT22;56303;52.160;-0.428;2023-04-25T04:32:06;3.50;99.90
20744;DHT22;56303;52.160;-0.428;2023-04-25T04:34:35;3.30;99.90
20744;DHT22;56303;52.160;-0.428;2023-04-25T04:37:02;3.20;99.90
20744;DHT22;56303;52.160;-0.428;2023-04-25T04:39:29;3.40;99.90
20744;DHT22;56303;52.160;-0.428;2023-04-25T04:41:56;3.60;99.90
20744;DHT22;56303;52.160;-0.428;2023-04-25T04:44:23;3.00;99.90
20744;DHT22;56303;52.160;-0.428;2023-04-25T04:46:49;3.80;99.90
20744;DHT22;56303;52.160;-0.428;2023-04-25T04:49:17;3.20;99.90
20744;DHT22;56303;52.160;-0.428;2023-04-25T04:51:44;4.00;99.90
20744;DHT22;56303;52.160;-0.428;2023-04-25T04:54:11;3.20;99.90
20744;DHT22;56303;52.160;-0.428;2023-04-25T04:56:38;3.00;99.90
20744;DHT22;56303;52.160;-0.428;2023-04-25T04:59:05;3.00;99.90
20744;DHT22;56303;52.160;-0.428;2023-04-25T05:01:31;2.90;99.90
20744;DHT22;56303;52.160;-0.428;2023-04-25T05:03:58;3.00;99.90
20744;DHT22;56303;52.160;-0.428;2023-04-25T05:06:28;3.00;99.90
20744;DHT22;56303;52.160;-0.428;2023-04-25T05:08:58;2.90;99.90
20744;DHT22;56303;52.160;-0.428;2023-04-25T05:11:26;3.10;99.90
20744;DHT22;56303;52.160;-0.428;2023-04-25T05:13:53;2.90;99.90
20744;DHT22;56303;52.160;-0.428;2023-04-25T05:16:20;3.70;99.90
20744;DHT22;56303;52.160;-0.428;2023-04-25T05:18:47;2.80;99.90
20744;DHT22;56303;52.160;-0.428;2023-04-25T05:21:17;2.80;99.90
20744;DHT22;56303;52.160;-0.428;2023-04-25T05:23:44;3.20;99.90
20744;DHT22;56303;52.160;-0.428;2023-04-25T05:26:11;3.40;99.90
20744;DHT22;56303;52.160;-0.428;2023-04-25T05:28:40;3.30;99.90
20744;DHT22;56303;52.160;-0.428;2023-04-25T05:31:10;3.10;99.90
20744;DHT22;56303;52.160;-0.428;2023-04-25T05:33:36;3.20;99.90
20744;DHT22;56303;52.160;-0.428;2023-04-25T05:36:04;3.70;99.90
20744;DHT22;56303;52.160;-0.428;2023-04-25T05:38:30;3.60;99.90
20744;DHT22;56303;52.160;-0.428;2023-04-25T05:41:00;4.60;99.90
20744;DHT22;56303;52.160;-0.428;2023-04-25T05:43:27;3.40;99.90
20744;DHT22;56303;52.160;-0.428;2023-04-25T05:45:54;3.80;99.90
20744;DHT22;56303;52.160;-0.428;2023-04-25T05:48:21;4.10;99.90
20744;DHT22;56303;52.160;-0.428;2023-04-25T05:50:47;4.20;99.90
20744;DHT22;56303;52.160;-0.428;2023-04-25T05:53:14;4.10;99.90
20744;DHT22;56303;52.160;-0.428;2023-04-25T05:55:41;4.10;99.90
20744;DHT22;56303;52.160;-0.428;2023-04-25T05:58:08;4.40;99.90
20744;DHT22;56303;52.160;-0.428;2023-04-25T06:00:35;4.40;99.90
20744;DHT22;56303;52.160;-0.428;2023-04-25T06:03:02;4.60;99.90
20744;DHT22;56303;52.160;-0.428;2023-04-25T06:05:29;4.50;99.90
20744;DHT22;56303;52.160;-0.428;2023-04-25T06:07:57;4.50;99.90
20744;DHT22;56303;52.160;-0.428;2023-04-25T06:10:24;4.40;99.90
20744;DHT22;56303;52.160;-0.428;2023-04-25T06:12:50;4.80;99.90
20744;DHT22;56303;52.160;-0.428;2023-04-25T06:15:17;5.20;99.90
20744;DHT22;56303;52.160;-0.428;2023-04-25T06:17:54;4.90;99.90
20744;DHT22;56303;52.160;-0.428;2023-04-25T06:20:22;4.80;99.90
20744;DHT22;56303;52.160;-0.428;2023-04-25T06:22:50;4.50;99.90
20744;DHT22;56303;52.160;-0.428;2023-04-25T06:25:18;4.60;99.90
20744;DHT22;56303;52.160;-0.428;2023-04-25T06:27:45;4.10;99.90
20744;DHT22;56303;52.160;-0.428;2023-04-25T06:30:11;4.30;99.90
20744;DHT22;56303;52.160;-0.428;2023-04-25T06:32:39;4.80;99.90
20744;DHT22;56303;52.160;-0.428;2023-04-25T06:35:06;5.10;99.90
20744;DHT22;56303;52.160;-0.428;2023-04-25T06:37:33;5.40;99.90
20744;DHT22;56303;52.160;-0.428;2023-04-25T06:40:00;5.50;99.90
20744;DHT22;56303;52.160;-0.428;2023-04-25T06:42:26;5.40;99.90
20744;DHT22;56303;52.160;-0.428;2023-04-25T06:44:53;5.50;99.90
20744;DHT22;56303;52.160;-0.428;2023-04-25T06:47:20;5.70;99.90
20744;DHT22;56303;52.160;-0.428;2023-04-25T06:49:47;5.60;99.90
20744;DHT22;56303;52.160;-0.428;2023-04-25T06:52:14;5.50;99.90
20744;DHT22;56303;52.160;-0.428;2023-04-25T06:54:41;5.40;99.90
20744;DHT22;56303;52.160;-0.428;2023-04-25T06:57:08;5.60;99.90
20744;DHT22;56303;52.160;-0.428;2023-04-25T06:59:34;5.40;99.90
20744;DHT22;56303;52.160;-0.428;2023-04-25T07:02:01;5.50;99.90
20744;DHT22;56303;52.160;-0.428;2023-04-25T07:04:28;5.60;99.90
20744;DHT22;56303;52.160;-0.428;2023-04-25T07:06:56;5.60;99.90
20744;DHT22;56303;52.160;-0.428;2023-04-25T07:09:23;6.20;99.90
20744;DHT22;56303;52.160;-0.428;2023-04-25T07:11:50;6.40;99.90
20744;DHT22;56303;52.160;-0.428;2023-04-25T07:14:17;6.60;99.90
20744;DHT22;56303;52.160;-0.428;2023-04-25T07:16:43;6.70;99.90
20744;DHT22;56303;52.160;-0.428;2023-04-25T07:19:10;6.10;99.90
20744;DHT22;56303;52.160;-0.428;2023-04-25T07:21:37;6.30;99.90
20744;DHT22;56303;52.160;-0.428;2023-04-25T07:24:04;6.50;99.90
20744;DHT22;56303;52.160;-0.428;2023-04-25T07:26:31;6.50;99.90
20744;DHT22;56303;52.160;-0.428;2023-04-25T07:28:58;6.50;99.90
20744;DHT22;56303;52.160;-0.428;2023-04-25T07:31:26;6.40;99.90
20744;DHT22;56303;52.160;-0.428;2023-04-25T07:33:54;6.50;99.90
20744;DHT22;56303;52.160;-0.428;2023-04-25T07:36:20;6.20;99.90
20744;DHT22;56303;52.160;-0.428;2023-04-25T07:38:48;6.30;99.90
20744;DHT22;56303;52.160;-0.428;2023-04-25T07:41:15;5.20;99.90
20744;DHT22;56303;52.160;-0.428;2023-04-25T07:43:42;6.60;99.90
20744;DHT22;56303;52.160;-0.428;2023-04-25T07:46:08;7.20;99.90
20744;DHT22;56303;52.160;-0.428;2023-04-25T07:48:35;6.90;99.90
20744;DHT22;56303;52.160;-0.428;2023-04-25T07:51:02;6.40;99.90
20744;DHT22;56303;52.160;-0.428;2023-04-25T07:53:31;6.40;99.90
20744;DHT22;56303;52.160;-0.428;2023-04-25T07:55:59;6.90;99.90
20744;DHT22;56303;52.160;-0.428;2023-04-25T07:58:25;6.90;99.90
20744;DHT22;56303;52.160;-0.428;2023-04-25T08:00:52;7.10;99.90
20744;DHT22;56303;52.160;-0.428;2023-04-25T08:03:19;7.40;99.90
20744;DHT22;56303;52.160;-0.428;2023-04-25T08:05:48;7.20;99.90
20744;DHT22;56303;52.160;-0.428;2023-04-25T08:08:15;7.40;99.90
20744;DHT22;56303;52.160;-0.428;2023-04-25T08:10:42;7.70;99.90
20744;DHT22;56303;52.160;-0.428;2023-04-25T08:13:08;7.30;99.90
20744;DHT22;56303;52.160;-0.428;2023-04-25T08:15:35;7.40;99.90
20744;DHT22;56303;52.160;-0.428;2023-04-25T08:18:02;7.70;99.90
20744;DHT22;56303;52.160;-0.428;2023-04-25T08:20:29;8.90;99.90
20744;DHT22;56303;52.160;-0.428;2023-04-25T08:22:57;7.70;99.90
20744;DHT22;56303;52.160;-0.428;2023-04-25T08:25:24;7.90;99.90
20744;DHT22;56303;52.160;-0.428;2023-04-25T08:27:51;7.70;99.90
20744;DHT22;56303;52.160;-0.428;2023-04-25T08:30:17;8.00;99.90
20744;DHT22;56303;52.160;-0.428;2023-04-25T08:32:44;8.10;99.90
20744;DHT22;56303;52.160;-0.428;2023-04-25T08:35:11;8.20;99.90
20744;DHT22;56303;52.160;-0.428;2023-04-25T08:37:38;8.00;99.90
20744;DHT22;56303;52.160;-0.428;2023-04-25T08:40:05;8.20;99.90
20744;DHT22;56303;52.160;-0.428;2023-04-25T08:42:34;8.40;99.90
20744;DHT22;56303;52.160;-0.428;2023-04-25T08:45:02;8.50;99.90
20744;DHT22;56303;52.160;-0.428;2023-04-25T08:47:34;8.30;99.90
20744;DHT22;56303;52.160;-0.428;2023-04-25T08:50:03;8.60;99.90
20744;DHT22;56303;52.160;-0.428;2023-04-25T08:52:43;8.70;99.90
20744;DHT22;56303;52.160;-0.428;2023-04-25T08:55:12;8.40;99.90
20744;DHT22;56303;52.160;-0.428;2023-04-25T08:57:41;8.80;99.90
20744;DHT22;56303;52.160;-0.428;2023-04-25T09:00:10;8.60;99.90
20744;DHT22;56303;52.160;-0.428;2023-04-25T09:02:39;8.40;99.90
20744;DHT22;56303;52.160;-0.428;2023-04-25T09:05:08;8.40;99.90
20744;DHT22;56303;52.160;-0.428;2023-04-25T09:07:36;9.00;99.90
20744;DHT22;56303;52.160;-0.428;2023-04-25T09:10:03;9.10;99.90
20744;DHT22;56303;52.160;-0.428;2023-04-25T09:12:30;8.90;99.90
20744;DHT22;56303;52.160;-0.428;2023-04-25T09:15:08;8.60;99.90
20744;DHT22;56303;52.160;-0.428;2023-04-25T09:17:36;8.50;99.90
20744;DHT22;56303;52.160;-0.428;2023-04-25T09:20:12;8.50;99.90
20744;DHT22;56303;52.160;-0.428;2023-04-25T09:22:39;9.10;99.90
20744;DHT22;56303;52.160;-0.428;2023-04-25T09:25:11;8.70;99.90
20744;DHT22;56303;52.160;-0.428;2023-04-25T09:27:54;8.80;99.90
20744;DHT22;56303;52.160;-0.428;2023-04-25T09:30:33;8.70;99.90
20744;DHT22;56303;52.160;-0.428;2023-04-25T09:33:07;8.80;99.90
20744;DHT22;56303;52.160;-0.428;2023-04-25T09:35:39;9.00;99.90
20744;DHT22;56303;52.160;-0.428;2023-04-25T09:38:11;9.20;99.90
20744;DHT22;56303;52.160;-0.428;2023-04-25T09:40:40;9.60;99.90
20744;DHT22;56303;52.160;-0.428;2023-04-25T09:43:19;9.90;99.90
20744;DHT22;56303;52.160;-0.428;2023-04-25T09:45:48;10.30;99.90
20744;DHT22;56303;52.160;-0.428;2023-04-25T09:48:19;10.40;99.90
20744;DHT22;56303;52.160;-0.428;2023-04-25T09:51:06;10.20;99.90
20744;DHT22;56303;52.160;-0.428;2023-04-25T09:53:41;10.40;99.90
20744;DHT22;56303;52.160;-0.428;2023-04-25T09:56:18;10.90;99.90
20744;DHT22;56303;52.160;-0.428;2023-04-25T09:58:47;10.40;99.90
20744;DHT22;56303;52.160;-0.428;2023-04-25T10:01:15;10.70;99.90
20744;DHT22;56303;52.160;-0.428;2023-04-25T10:03:43;11.50;99.90
20744;DHT22;56303;52.160;-0.428;2023-04-25T10:06:16;11.00;99.90
20744;DHT22;56303;52.160;-0.428;2023-04-25T10:08:50;8.70;99.90
20744;DHT22;56303;52.160;-0.428;2023-04-25T10:11:18;9.70;99.90
20744;DHT22;56303;52.160;-0.428;2023-04-25T10:13:45;10.20;99.90
20744;DHT22;56303;52.160;-0.428;2023-04-25T10:16:13;10.70;99.90
20744;DHT22;56303;52.160;-0.428;2023-04-25T10:18:40;11.20;99.90
20744;DHT22;56303;52.160;-0.428;2023-04-25T10:21:07;11.00;99.90
20744;DHT22;56303;52.160;-0.428;2023-04-25T10:23:34;11.20;99.90
20744;DHT22;56303;52.160;-0.428;2023-04-25T10:26:03;10.80;99.90
20744;DHT22;56303;52.160;-0.428;2023-04-25T10:29:04;11.00;99.90
20744;DHT22;56303;52.160;-0.428;2023-04-25T10:31:31;11.70;99.90
20744;DHT22;56303;52.160;-0.428;2023-04-25T10:34:02;11.70;99.90
20744;DHT22;56303;52.160;-0.428;2023-04-25T10:36:32;11.40;99.90
20744;DHT22;56303;52.160;-0.428;2023-04-25T10:39:04;11.20;99.90
20744;DHT22;56303;52.160;-0.428;2023-04-25T10:41:55;10.50;99.90
20744;DHT22;56303;52.160;-0.428;2023-04-25T10:44:26;10.50;99.90
20744;DHT22;56303;52.160;-0.428;2023-04-25T10:46:55;10.60;99.90
20744;DHT22;56303;52.160;-0.428;2023-04-25T10:49:41;10.60;99.90
20744;DHT22;56303;52.160;-0.428;2023-04-25T10:54:47;12.10;99.90
20744;DHT22;56303;52.160;-0.428;2023-04-25T11:00:17;12.50;99.90
20744;DHT22;56303;52.160;-0.428;2023-04-25T11:02:47;12.80;99.90
20744;DHT22;56303;52.160;-0.428;2023-04-25T11:07:59;12.90;99.90
20744;DHT22;56303;52.160;-0.428;2023-04-25T11:10:34;12.80;99.60
20744;DHT22;56303;52.160;-0.428;2023-04-25T11:13:04;12.90;99.80
20744;DHT22;56303;52.160;-0.428;2023-04-25T11:15:31;12.90;98.70
20744;DHT22;56303;52.160;-0.428;2023-04-25T11:17:59;12.80;98.10
20744;DHT22;56303;52.160;-0.428;2023-04-25T11:20:27;12.40;98.40
20744;DHT22;56303;52.160;-0.428;2023-04-25T11:22:57;12.40;99.50
20744;DHT22;56303;52.160;-0.428;2023-04-25T11:25:26;11.70;99.90
20744;DHT22;56303;52.160;-0.428;2023-04-25T11:27:58;11.80;99.90
20744;DHT22;56303;52.160;-0.428;2023-04-25T11:30:25;11.50;98.80
20744;DHT22;56303;52.160;-0.428;2023-04-25T11:32:53;11.30;99.60
20744;DHT22;56303;52.160;-0.428;2023-04-25T11:35:20;11.80;98.70
20744;DHT22;56303;52.160;-0.428;2023-04-25T11:37:50;12.20;99.10
20744;DHT22;56303;52.160;-0.428;2023-04-25T11:40:17;13.30;98.60
20744;DHT22;56303;52.160;-0.428;2023-04-25T11:42:45;13.40;97.70
20744;DHT22;56303;52.160;-0.428;2023-04-25T11:45:14;13.40;97.00
20744;DHT22;56303;52.160;-0.428;2023-04-25T11:47:41;13.20;97.40
20744;DHT22;56303;52.160;-0.428;2023-04-25T11:50:08;12.20;98.10
20744;DHT22;56303;52.160;-0.428;2023-04-25T11:52:43;11.50;98.80
20744;DHT22;56303;52.160;-0.428;2023-04-25T11:55:16;11.30;99.90
20744;DHT22;56303;52.160;-0.428;2023-04-25T11:57:45;12.00;99.30
20744;DHT22;56303;52.160;-0.428;2023-04-25T12:02:55;13.20;98.50
20744;DHT22;56303;52.160;-0.428;2023-04-25T12:05:27;13.50;97.70
20744;DHT22;56303;52.160;-0.428;2023-04-25T12:08:16;12.80;98.00
20744;DHT22;56303;52.160;-0.428;2023-04-25T12:10:45;13.00;97.60
20744;DHT22;56303;52.160;-0.428;2023-04-25T12:13:23;13.40;98.00
20744;DHT22;56303;52.160;-0.428;2023-04-25T12:15:51;14.60;95.40
20744;DHT22;56303;52.160;-0.428;2023-04-25T12:18:22;15.30;96.80
20744;DHT22;56303;52.160;-0.428;2023-04-25T12:20:49;14.20;95.30
20744;DHT22;56303;52.160;-0.428;2023-04-25T12:23:16;14.60;95.00
20744;DHT22;56303;52.160;-0.428;2023-04-25T12:25:44;15.00;94.60
20744;DHT22;56303;52.160;-0.428;2023-04-25T12:28:19;14.60;95.40
20744;DHT22;56303;52.160;-0.428;2023-04-25T12:31:03;14.90;93.80
20744;DHT22;56303;52.160;-0.428;2023-04-25T12:33:36;14.80;94.70
20744;DHT22;56303;52.160;-0.428;2023-04-25T12:36:04;14.70;96.60
20744;DHT22;56303;52.160;-0.428;2023-04-25T12:38:38;14.60;96.70
20744;DHT22;56303;52.160;-0.428;2023-04-25T12:41:05;14.30;96.60
20744;DHT22;56303;52.160;-0.428;2023-04-25T12:43:33;13.50;98.00
20744;DHT22;56303;52.160;-0.428;2023-04-25T12:45:59;13.10;97.60
20744;DHT22;56303;52.160;-0.428;2023-04-25T12:48:27;13.20;96.80
20744;DHT22;56303;52.160;-0.428;2023-04-25T12:50:54;13.30;96.40
20744;DHT22;56303;52.160;-0.428;2023-04-25T12:53:22;13.20;96.10
20744;DHT22;56303;52.160;-0.428;2023-04-25T12:55:50;13.10;96.30
20744;DHT22;56303;52.160;-0.428;2023-04-25T12:58:18;14.00;96.30
20744;DHT22;56303;52.160;-0.428;2023-04-25T13:00:46;14.90;96.70
20744;DHT22;56303;52.160;-0.428;2023-04-25T13:03:13;16.20;94.60
20744;DHT22;56303;52.160;-0.428;2023-04-25T13:05:40;16.50;93.50
20744;DHT22;56303;52.160;-0.428;2023-04-25T13:08:07;16.40;93.70
20744;DHT22;56303;52.160;-0.428;2023-04-25T13:10:34;15.70;94.00
20744;DHT22;56303;52.160;-0.428;2023-04-25T13:13:02;14.60;95.40
20744;DHT22;56303;52.160;-0.428;2023-04-25T13:15:29;13.90;96.50
20744;DHT22;56303;52.160;-0.428;2023-04-25T13:17:56;14.30;95.90
20744;DHT22;56303;52.160;-0.428;2023-04-25T13:20:23;14.10;95.90
20744;DHT22;56303;52.160;-0.428;2023-04-25T13:22:51;14.30;95.60
20744;DHT22;56303;52.160;-0.428;2023-04-25T13:25:18;14.20;96.20
20744;DHT22;56303;52.160;-0.428;2023-04-25T13:27:45;14.60;94.70
20744;DHT22;56303;52.160;-0.428;2023-04-25T13:30:13;15.40;95.80
20744;DHT22;56303;52.160;-0.428;2023-04-25T13:32:40;16.00;93.90
20744;DHT22;56303;52.160;-0.428;2023-04-25T13:35:10;18.00;95.00
20744;DHT22;56303;52.160;-0.428;2023-04-25T13:37:37;17.10;92.50
20744;DHT22;56303;52.160;-0.428;2023-04-25T13:40:08;15.70;94.60
20744;DHT22;56303;52.160;-0.428;2023-04-25T13:42:37;14.70;95.90
20744;DHT22;56303;52.160;-0.428;2023-04-25T13:45:05;14.30;95.90
20744;DHT22;56303;52.160;-0.428;2023-04-25T13:47:32;13.80;96.10
20744;DHT22;56303;52.160;-0.428;2023-04-25T13:49:59;14.30;95.40
20744;DHT22;56303;52.160;-0.428;2023-04-25T13:52:29;14.20;95.20
20744;DHT22;56303;52.160;-0.428;2023-04-25T13:54:56;13.80;95.00
20744;DHT22;56303;52.160;-0.428;2023-04-25T13:57:23;14.40;93.60
20744;DHT22;56303;52.160;-0.428;2023-04-25T13:59:50;15.10;94.80
20744;DHT22;56303;52.160;-0.428;2023-04-25T14:02:17;17.60;93.90
20744;DHT22;56303;52.160;-0.428;2023-04-25T14:04:44;16.60;93.00
20744;DHT22;56303;52.160;-0.428;2023-04-25T14:07:11;17.20;92.20
20744;DHT22;56303;52.160;-0.428;2023-04-25T14:09:38;17.60;91.80
20744;DHT22;56303;52.160;-0.428;2023-04-25T14:12:05;17.90;90.10
20744;DHT22;56303;52.160;-0.428;2023-04-25T14:14:32;17.90;90.10
20744;DHT22;56303;52.160;-0.428;2023-04-25T14:16:59;16.90;88.30
20744;DHT22;56303;52.160;-0.428;2023-04-25T14:19:26;18.20;88.90
20744;DHT22;56303;52.160;-0.428;2023-04-25T14:21:54;19.20;91.50
20744;DHT22;56303;52.160;-0.428;2023-04-25T14:24:21;18.10;90.10
20744;DHT22;56303;52.160;-0.428;2023-04-25T14:26:48;17.90;91.00
20744;DHT22;56303;52.160;-0.428;2023-04-25T14:29:15;19.00;89.80
20744;DHT22;56303;52.160;-0.428;2023-04-25T14:31:42;19.50;87.30
20744;DHT22;56303;52.160;-0.428;2023-04-25T14:34:09;20.10;85.70
20744;DHT22;56303;52.160;-0.428;2023-04-25T14:36:36;19.90;84.30
20744;DHT22;56303;52.160;-0.428;2023-04-25T14:39:03;19.00;84.40
20744;DHT22;56303;52.160;-0.428;2023-04-25T14:41:32;19.30;84.80
20744;DHT22;56303;52.160;-0.428;2023-04-25T14:43:58;19.10;88.70
20744;DHT22;56303;52.160;-0.428;2023-04-25T14:46:25;19.40;88.40
20744;DHT22;56303;52.160;-0.428;2023-04-25T14:48:53;17.60;92.00
20744;DHT22;56303;52.160;-0.428;2023-04-25T14:51:22;17.80;91.00
20744;DHT22;56303;52.160;-0.428;2023-04-25T14:53:49;18.50;91.00
20744;DHT22;56303;52.160;-0.428;2023-04-25T14:56:17;17.40;91.90
20744;DHT22;56303;52.160;-0.428;2023-04-25T14:58:44;17.70;92.10
20744;DHT22;56303;52.160;-0.428;2023-04-25T15:01:12;17.00;92.70
20744;DHT22;56303;52.160;-0.428;2023-04-25T15:03:42;16.80;92.70
20744;DHT22;56303;52.160;-0.428;2023-04-25T15:06:10;16.00;91.50
20744;DHT22;56303;52.160;-0.428;2023-04-25T15:08:37;15.00;92.70
20744;DHT22;56303;52.160;-0.428;2023-04-25T15:11:04;14.70;92.60
20744;DHT22;56303;52.160;-0.428;2023-04-25T15:13:31;15.10;93.60
20744;DHT22;56303;52.160;-0.428;2023-04-25T15:15:58;15.60;92.00
20744;DHT22;56303;52.160;-0.428;2023-04-25T15:18:25;14.80;92.30
20744;DHT22;56303;52.160;-0.428;2023-04-25T15:20:52;14.70;93.00
20744;DHT22;56303;52.160;-0.428;2023-04-25T15:23:20;14.90;93.10
20744;DHT22;56303;52.160;-0.428;2023-04-25T15:25:50;14.50;92.80
20744;DHT22;56303;52.160;-0.428;2023-04-25T15:28:17;13.90;93.70
20744;DHT22;56303;52.160;-0.428;2023-04-25T15:30:44;13.70;93.90
20744;DHT22;56303;52.160;-0.428;2023-04-25T15:33:11;13.70;93.90
20744;DHT22;56303;52.160;-0.428;2023-04-25T15:35:39;13.40;94.10
20744;DHT22;56303;52.160;-0.428;2023-04-25T15:38:07;13.60;93.90
20744;DHT22;56303;52.160;-0.428;2023-04-25T15:40:34;13.80;94.60
20744;DHT22;56303;52.160;-0.428;2023-04-25T15:43:01;14.00;96.20